This is the latest recevied weather packets stored in our database for station/object RK6MF-10. If no packets are shown the sender has not sent any weather packets the latest 10 day(s).
| Time | Temp. | Humidity | Pressure | Rain* | Wind** | Luminosity | Snow |
|---|---|---|---|---|---|---|---|
| 1778051871 | 22.22° C | 41% | 1010.7 hPa | - | - | - | - |
| 1778050971 | 23.89° C | 42% | 1010.7 hPa | - | - | - | - |
| 1778050071 | 20° C | 53% | 1010.6 hPa | - | - | - | - |
| 1778049171 | 17.22° C | 58% | 1010.6 hPa | - | - | - | - |
| 1778048270 | 18.33° C | 55% | 1010.7 hPa | - | - | - | - |
| 1778047370 | 18.89° C | 52% | 1010.8 hPa | - | - | - | - |
| 1778046470 | 20.56° C | 47% | 1010.6 hPa | - | - | - | - |
| 1778045570 | 19.44° C | 52% | 1010.6 hPa | - | - | - | - |
| 1778044670 | 20.56° C | 52% | 1010.5 hPa | - | - | - | - |
| 1778043770 | 20.56° C | 54% | 1010.5 hPa | - | - | - | - |
| 1778042870 | 19.44° C | 59% | 1010.6 hPa | - | - | - | - |
| 1778041970 | 17.22° C | 71% | 1010.5 hPa | - | - | - | - |
| 1778041070 | 13.89° C | 100% | 1010.5 hPa | - | - | - | - |
| 1778040169 | 12.78° C | 100% | 1010.4 hPa | - | - | - | - |
| 1778039269 | 12.22° C | 100% | 1010.3 hPa | - | - | - | - |
| 1778038369 | 11.67° C | 100% | 1010.3 hPa | - | - | - | - |
| 1778037469 | 11.11° C | 98% | 1010.2 hPa | - | - | - | - |
| 1778036569 | 10.56° C | 93% | 1009.9 hPa | - | - | - | - |
| 1778035669 | 10.56° C | 88% | 1009.7 hPa | - | - | - | - |
| 1778034769 | 10.56° C | 80% | 1009.5 hPa | - | - | - | - |
| 1778033869 | 10° C | 79% | 1009.5 hPa | - | - | - | - |
| 1778032071 | 9.44° C | 84% | 1009.4 hPa | - | - | - | - |
| 1778031171 | 9.44° C | 83% | 1009.4 hPa | - | - | - | - |
| 1778030270 | 9.44° C | 84% | 1009.5 hPa | - | - | - | - |
| 1778029370 | 9.44° C | 84% | 1009.4 hPa | - | - | - | - |
* Rain since midnight (hover to see other rain measurements)
** Current wind speed in m/s (hover to see current wind gust speed)